PWSweather.com
Personal Weather Stations
Station Observations
IMAZOWIE6
WarszawaPL

WarszawaPL

Lat: 52.27957, Lon: 21.05489

Elevation: 100

Station Type: WS1080

http://stacjapogody.waw.pl/

High Low Average
Temperature 50.5°F10.3°C 40.3°F4.6°C 44.6°F7.0°C
Dew Point 6.7°F-14.1°C -168.5°F-111.4°C -120.4°F-84.7°C
Winds 5.4 mph 8.7 kmh Calm Calm 2.0 mph N3.2 kmh N
Wind Gusts 10.8 mph17.4 kmh -- 5.0 mph8.0 kmh
Humidity 24% 10% 19%
Pressure 29.09 in985.1 mb 28.91 in979.0 mb -
Precipitation 0.00 in0.0 mm - -
Hour Temp Dew Point Humidity Winds Wind Gusts Pressure Precip Precip Rate Daily Precip Total
12:04 AM 40.3°F4.6°C 5.2°F-14.9°C 23% Calm Calm 2.8 mph4.5 kmh 28.91 in979.0 mb 0.00 in0.0 mm 0.00 in0.0 mm 0.00 in0.0 mm
12:19 AM 40.5°F4.7°C 5.3°F-14.8°C 23% 0.6 mph N1.0 kmh N 3.4 mph5.5 kmh 28.92 in979.3 mb 0.00 in0.0 mm 0.00 in0.0 mm 0.00 in0.0 mm
12:34 AM 40.8°F4.9°C 6.6°F-14.1°C 24% Calm Calm 2.8 mph4.5 kmh 28.92 in979.3 mb 0.00 in0.0 mm 0.00 in0.0 mm 0.00 in0.0 mm
12:49 AM 40.6°F4.8°C 6.4°F-14.2°C 24% Calm Calm 3.4 mph5.5 kmh 28.91 in979.0 mb 0.00 in0.0 mm 0.00 in0.0 mm 0.00 in0.0 mm
01:04 AM 40.8°F4.9°C 6.6°F-14.1°C 24% 2.8 mph N4.5 kmh N 6.2 mph10.0 kmh 28.92 in979.3 mb 0.00 in0.0 mm 0.00 in0.0 mm 0.00 in0.0 mm
01:19 AM 40.8°F4.9°C 6.6°F-14.1°C 24% 2.0 mph N3.2 kmh N 4.8 mph7.7 kmh 28.92 in979.3 mb 0.00 in0.0 mm 0.00 in0.0 mm 0.00 in0.0 mm
01:34 AM 41.0°F5.0°C 6.7°F-14.1°C 24% 0.6 mph N1.0 kmh N 3.4 mph5.5 kmh 28.92 in979.3 mb 0.00 in0.0 mm 0.00 in0.0 mm 0.00 in0.0 mm
01:49 AM 40.8°F4.9°C 6.6°F-14.1°C 24% 1.4 mph N2.3 kmh N 4.0 mph6.4 kmh 28.93 in979.7 mb 0.00 in0.0 mm 0.00 in0.0 mm 0.00 in0.0 mm
02:04 AM 41.0°F5.0°C 6.7°F-14.1°C 24% 1.4 mph N2.3 kmh N 4.0 mph6.4 kmh 28.92 in979.3 mb 0.00 in0.0 mm 0.00 in0.0 mm 0.00 in0.0 mm
02:19 AM 41.0°F5.0°C 5.8°F-14.6°C 23% 1.4 mph N2.3 kmh N 4.0 mph6.4 kmh 28.92 in979.3 mb 0.00 in0.0 mm 0.00 in0.0 mm 0.00 in0.0 mm
02:34 AM 41.0°F5.0°C 5.8°F-14.6°C 23% 2.0 mph N3.2 kmh N 4.8 mph7.7 kmh 28.92 in979.3 mb 0.00 in0.0 mm 0.00 in0.0 mm 0.00 in0.0 mm
02:49 AM 41.2°F5.1°C 6.0°F-14.4°C 23% 2.8 mph N4.5 kmh N 6.2 mph10.0 kmh 28.92 in979.3 mb 0.00 in0.0 mm 0.00 in0.0 mm 0.00 in0.0 mm
03:04 AM 41.4°F5.2°C 6.1°F-14.4°C 23% 1.4 mph N2.3 kmh N 5.4 mph8.7 kmh 28.92 in979.3 mb 0.00 in0.0 mm 0.00 in0.0 mm 0.00 in0.0 mm
03:19 AM 41.4°F5.2°C 5.1°F-14.9°C 22% 3.4 mph N5.5 kmh N 7.4 mph11.9 kmh 28.92 in979.3 mb 0.00 in0.0 mm 0.00 in0.0 mm 0.00 in0.0 mm
03:34 AM 41.5°F5.3°C 5.3°F-14.8°C 22% 1.4 mph N2.3 kmh N 4.0 mph6.4 kmh 28.92 in979.3 mb 0.00 in0.0 mm 0.00 in0.0 mm 0.00 in0.0 mm
03:50 AM 41.7°F5.4°C 4.4°F-15.3°C 21% 4.0 mph N6.4 kmh N 6.8 mph10.9 kmh 28.92 in979.3 mb 0.00 in0.0 mm 0.00 in0.0 mm 0.00 in0.0 mm
04:01 AM 41.7°F5.4°C 3.4°F-15.9°C 20% 2.8 mph N4.5 kmh N 4.8 mph7.7 kmh 28.92 in979.3 mb 0.00 in0.0 mm 0.00 in0.0 mm 0.00 in0.0 mm
04:17 AM 42.4°F5.8°C 2.9°F-16.2°C 19% 3.4 mph N5.5 kmh N 6.2 mph10.0 kmh 28.92 in979.3 mb 0.00 in0.0 mm 0.00 in0.0 mm 0.00 in0.0 mm
04:33 AM 42.8°F6.0°C 2.0°F-16.7°C 18% 0.6 mph N1.0 kmh N 4.8 mph7.7 kmh 28.92 in979.3 mb 0.00 in0.0 mm 0.00 in0.0 mm 0.00 in0.0 mm
04:49 AM 42.8°F6.0°C -0.5°F-18.1°C 16% Calm Calm 4.0 mph6.4 kmh 28.92 in979.3 mb 0.00 in0.0 mm 0.00 in0.0 mm 0.00 in0.0 mm
05:05 AM 42.8°F6.0°C -3.2°F-19.6°C 14% 4.0 mph N6.4 kmh N 8.8 mph14.2 kmh 28.93 in979.7 mb 0.00 in0.0 mm 0.00 in0.0 mm 0.00 in0.0 mm
05:16 AM 43.0°F6.1°C -4.6°F-20.3°C 13% 4.0 mph N6.4 kmh N 6.2 mph10.0 kmh 28.93 in979.7 mb 0.00 in0.0 mm 0.00 in0.0 mm 0.00 in0.0 mm
05:32 AM 42.8°F6.0°C -6.4°F-21.3°C 12% 2.8 mph N4.5 kmh N 4.8 mph7.7 kmh 28.94 in980.0 mb 0.00 in0.0 mm 0.00 in0.0 mm 0.00 in0.0 mm
05:48 AM 43.0°F6.1°C -8.0°F-22.2°C 11% 4.0 mph N6.4 kmh N 7.4 mph11.9 kmh 28.94 in980.0 mb 0.00 in0.0 mm 0.00 in0.0 mm 0.00 in0.0 mm
06:04 AM 43.0°F6.1°C -8.0°F-22.2°C 11% 2.8 mph N4.5 kmh N 5.4 mph8.7 kmh 28.94 in980.0 mb 0.00 in0.0 mm 0.00 in0.0 mm 0.00 in0.0 mm
06:19 AM 43.0°F6.1°C -9.9°F-23.3°C 10% 2.8 mph N4.5 kmh N 6.2 mph10.0 kmh 28.94 in980.0 mb 0.00 in0.0 mm 0.00 in0.0 mm 0.00 in0.0 mm
06:34 AM 43.2°F6.2°C -9.8°F-23.2°C 10% 4.8 mph N7.7 kmh N 8.2 mph13.2 kmh 28.94 in980.0 mb 0.00 in0.0 mm 0.00 in0.0 mm 0.00 in0.0 mm
06:49 AM 43.2°F6.2°C -168.5°F-111.4°C - 3.4 mph N5.5 kmh N 5.4 mph8.7 kmh 28.95 in980.4 mb 0.00 in0.0 mm 0.00 in0.0 mm 0.00 in0.0 mm
07:04 AM 43.2°F6.2°C -168.5°F-111.4°C - 2.8 mph N4.5 kmh N 6.2 mph10.0 kmh 28.95 in980.4 mb 0.00 in0.0 mm 0.00 in0.0 mm 0.00 in0.0 mm
07:19 AM 43.2°F6.2°C -168.5°F-111.4°C - 4.0 mph N6.4 kmh N 6.2 mph10.0 kmh 28.96 in980.7 mb 0.00 in0.0 mm 0.00 in0.0 mm 0.00 in0.0 mm
07:34 AM 43.2°F6.2°C -168.5°F-111.4°C - 2.8 mph N4.5 kmh N 4.8 mph7.7 kmh 28.96 in980.7 mb 0.00 in0.0 mm 0.00 in0.0 mm 0.00 in0.0 mm
07:49 AM 43.5°F6.4°C -168.4°F-111.3°C - 3.4 mph N5.5 kmh N 5.4 mph8.7 kmh 28.96 in980.7 mb 0.00 in0.0 mm 0.00 in0.0 mm 0.00 in0.0 mm
08:04 AM 43.5°F6.4°C -168.4°F-111.3°C - 2.0 mph N3.2 kmh N 5.4 mph8.7 kmh 28.97 in981.0 mb 0.00 in0.0 mm 0.00 in0.0 mm 0.00 in0.0 mm
08:19 AM 43.5°F6.4°C -168.4°F-111.3°C - 2.8 mph N4.5 kmh N 6.2 mph10.0 kmh 28.97 in981.0 mb 0.00 in0.0 mm 0.00 in0.0 mm 0.00 in0.0 mm
08:34 AM 45.0°F7.2°C -168.3°F-111.3°C - 4.0 mph N6.4 kmh N 7.4 mph11.9 kmh 28.98 in981.4 mb 0.00 in0.0 mm 0.00 in0.0 mm 0.00 in0.0 mm
08:49 AM 46.4°F8.0°C -168.2°F-111.2°C - 2.8 mph N4.5 kmh N 4.8 mph7.7 kmh 28.98 in981.4 mb 0.00 in0.0 mm 0.00 in0.0 mm 0.00 in0.0 mm
09:04 AM 46.0°F7.8°C -168.2°F-111.2°C - 2.0 mph N3.2 kmh N 5.4 mph8.7 kmh 28.98 in981.4 mb 0.00 in0.0 mm 0.00 in0.0 mm 0.00 in0.0 mm
09:19 AM 45.5°F7.5°C -168.3°F-111.3°C - 3.4 mph N5.5 kmh N 7.4 mph11.9 kmh 28.99 in981.7 mb 0.00 in0.0 mm 0.00 in0.0 mm 0.00 in0.0 mm
09:34 AM 46.6°F8.1°C -168.1°F-111.2°C - 2.8 mph N4.5 kmh N 4.8 mph7.7 kmh 29.00 in982.1 mb 0.00 in0.0 mm 0.00 in0.0 mm 0.00 in0.0 mm
09:49 AM 49.5°F9.7°C -167.9°F-111.1°C - 2.8 mph N4.5 kmh N 6.2 mph10.0 kmh 28.99 in981.7 mb 0.00 in0.0 mm 0.00 in0.0 mm 0.00 in0.0 mm
10:04 AM 50.5°F10.3°C -167.7°F-110.9°C - 4.0 mph N6.4 kmh N 8.2 mph13.2 kmh 29.00 in982.1 mb 0.00 in0.0 mm 0.00 in0.0 mm 0.00 in0.0 mm
10:19 AM 48.4°F9.1°C -168.0°F-111.1°C - 2.8 mph N4.5 kmh N 6.2 mph10.0 kmh 29.00 in982.1 mb 0.00 in0.0 mm 0.00 in0.0 mm 0.00 in0.0 mm
10:34 AM 47.8°F8.8°C -168.0°F-111.1°C - 4.8 mph N7.7 kmh N 8.2 mph13.2 kmh 29.00 in982.1 mb 0.00 in0.0 mm 0.00 in0.0 mm 0.00 in0.0 mm
10:49 AM 47.8°F8.8°C -168.0°F-111.1°C - 2.8 mph N4.5 kmh N 6.8 mph10.9 kmh 29.00 in982.1 mb 0.00 in0.0 mm 0.00 in0.0 mm 0.00 in0.0 mm
11:04 AM 48.0°F8.9°C -168.0°F-111.1°C - 2.8 mph N4.5 kmh N 8.2 mph13.2 kmh 29.00 in982.1 mb 0.00 in0.0 mm 0.00 in0.0 mm 0.00 in0.0 mm
11:19 AM 48.2°F9.0°C -168.0°F-111.1°C - 3.4 mph N5.5 kmh N 6.2 mph10.0 kmh 29.00 in982.1 mb 0.00 in0.0 mm 0.00 in0.0 mm 0.00 in0.0 mm
11:34 AM 48.4°F9.1°C -168.0°F-111.1°C - 5.4 mph N8.7 kmh N 9.6 mph15.4 kmh 29.01 in982.4 mb 0.00 in0.0 mm 0.00 in0.0 mm 0.00 in0.0 mm
11:49 AM 48.6°F9.2°C -167.9°F-111.1°C - 2.0 mph N3.2 kmh N 4.0 mph6.4 kmh 29.01 in982.4 mb 0.00 in0.0 mm 0.00 in0.0 mm 0.00 in0.0 mm
12:04 PM 48.2°F9.0°C -168.0°F-111.1°C - 2.0 mph N3.2 kmh N 4.0 mph6.4 kmh 29.02 in982.7 mb 0.00 in0.0 mm 0.00 in0.0 mm 0.00 in0.0 mm
12:19 PM 47.8°F8.8°C -168.0°F-111.1°C - 4.0 mph N6.4 kmh N 10.8 mph17.4 kmh 29.02 in982.7 mb 0.00 in0.0 mm 0.00 in0.0 mm 0.00 in0.0 mm
12:34 PM 47.8°F8.8°C -168.0°F-111.1°C - 3.4 mph N5.5 kmh N 6.8 mph10.9 kmh 29.02 in982.7 mb 0.00 in0.0 mm 0.00 in0.0 mm 0.00 in0.0 mm
12:49 PM 47.8°F8.8°C -168.0°F-111.1°C - 1.4 mph N2.3 kmh N 4.0 mph6.4 kmh 29.02 in982.7 mb 0.00 in0.0 mm 0.00 in0.0 mm 0.00 in0.0 mm
01:04 PM 47.5°F8.6°C -168.1°F-111.2°C - 4.8 mph N7.7 kmh N 7.4 mph11.9 kmh 29.03 in983.1 mb 0.00 in0.0 mm 0.00 in0.0 mm 0.00 in0.0 mm
01:19 PM 47.1°F8.4°C -168.1°F-111.2°C - 2.0 mph N3.2 kmh N 4.8 mph7.7 kmh 29.03 in983.1 mb 0.00 in0.0 mm 0.00 in0.0 mm 0.00 in0.0 mm
01:34 PM 46.9°F8.3°C -168.1°F-111.2°C - 2.0 mph N3.2 kmh N 4.0 mph6.4 kmh 29.03 in983.1 mb 0.00 in0.0 mm 0.00 in0.0 mm 0.00 in0.0 mm
01:49 PM 46.9°F8.3°C -168.1°F-111.2°C - 4.0 mph N6.4 kmh N 6.8 mph10.9 kmh 29.04 in983.4 mb 0.00 in0.0 mm 0.00 in0.0 mm 0.00 in0.0 mm
02:04 PM 46.9°F8.3°C -168.1°F-111.2°C - 2.0 mph N3.2 kmh N 4.8 mph7.7 kmh 29.04 in983.4 mb 0.00 in0.0 mm 0.00 in0.0 mm 0.00 in0.0 mm
02:19 PM 47.1°F8.4°C -168.1°F-111.2°C - 3.4 mph N5.5 kmh N 6.8 mph10.9 kmh 29.04 in983.4 mb 0.00 in0.0 mm 0.00 in0.0 mm 0.00 in0.0 mm
02:34 PM 46.9°F8.3°C -168.1°F-111.2°C - 1.4 mph N2.3 kmh N 4.8 mph7.7 kmh 29.05 in983.7 mb 0.00 in0.0 mm 0.00 in0.0 mm 0.00 in0.0 mm
02:49 PM 46.8°F8.2°C -168.1°F-111.2°C - 1.4 mph N2.3 kmh N 4.0 mph6.4 kmh 29.06 in984.1 mb 0.00 in0.0 mm 0.00 in0.0 mm 0.00 in0.0 mm
03:04 PM 46.6°F8.1°C -168.1°F-111.2°C - 3.4 mph N5.5 kmh N 5.4 mph8.7 kmh 29.06 in984.1 mb 0.00 in0.0 mm 0.00 in0.0 mm 0.00 in0.0 mm
03:19 PM 46.6°F8.1°C -168.1°F-111.2°C - 2.8 mph N4.5 kmh N 6.2 mph10.0 kmh 29.06 in984.1 mb 0.00 in0.0 mm 0.00 in0.0 mm 0.00 in0.0 mm
03:34 PM 46.2°F7.9°C -168.2°F-111.2°C - 2.0 mph N3.2 kmh N 5.4 mph8.7 kmh 29.06 in984.1 mb 0.00 in0.0 mm 0.00 in0.0 mm 0.00 in0.0 mm
03:49 PM 46.2°F7.9°C -168.2°F-111.2°C - 1.4 mph N2.3 kmh N 4.0 mph6.4 kmh 29.06 in984.1 mb 0.00 in0.0 mm 0.00 in0.0 mm 0.00 in0.0 mm
04:04 PM 46.2°F7.9°C -168.2°F-111.2°C - 2.0 mph N3.2 kmh N 4.0 mph6.4 kmh 29.06 in984.1 mb 0.00 in0.0 mm 0.00 in0.0 mm 0.00 in0.0 mm
04:19 PM 46.0°F7.8°C -168.2°F-111.2°C - 4.8 mph N7.7 kmh N 9.6 mph15.4 kmh 29.07 in984.4 mb 0.00 in0.0 mm 0.00 in0.0 mm 0.00 in0.0 mm
04:34 PM 45.9°F7.7°C -168.2°F-111.2°C - 2.8 mph N4.5 kmh N 6.2 mph10.0 kmh 29.07 in984.4 mb 0.00 in0.0 mm 0.00 in0.0 mm 0.00 in0.0 mm
04:49 PM 45.9°F7.7°C -168.2°F-111.2°C - 2.8 mph N4.5 kmh N 6.2 mph10.0 kmh 29.07 in984.4 mb 0.00 in0.0 mm 0.00 in0.0 mm 0.00 in0.0 mm
05:04 PM 45.9°F7.7°C -168.2°F-111.2°C - 3.4 mph N5.5 kmh N 9.6 mph15.4 kmh 29.07 in984.4 mb 0.00 in0.0 mm 0.00 in0.0 mm 0.00 in0.0 mm
05:19 PM 45.7°F7.6°C -168.2°F-111.2°C - 2.8 mph N4.5 kmh N 4.8 mph7.7 kmh 29.08 in984.8 mb 0.00 in0.0 mm 0.00 in0.0 mm 0.00 in0.0 mm
05:34 PM 45.3°F7.4°C -168.3°F-111.3°C - 3.4 mph N5.5 kmh N 5.4 mph8.7 kmh 29.08 in984.8 mb 0.00 in0.0 mm 0.00 in0.0 mm 0.00 in0.0 mm
05:49 PM 45.1°F7.3°C -168.3°F-111.3°C - 3.4 mph N5.5 kmh N 5.4 mph8.7 kmh 29.08 in984.8 mb 0.00 in0.0 mm 0.00 in0.0 mm 0.00 in0.0 mm
06:04 PM 45.0°F7.2°C -168.3°F-111.3°C - 2.8 mph N4.5 kmh N 5.4 mph8.7 kmh 29.08 in984.8 mb 0.00 in0.0 mm 0.00 in0.0 mm 0.00 in0.0 mm
06:19 PM 44.4°F6.9°C -168.4°F-111.3°C - 3.4 mph N5.5 kmh N 6.2 mph10.0 kmh 29.08 in984.8 mb 0.00 in0.0 mm 0.00 in0.0 mm 0.00 in0.0 mm
06:34 PM 44.8°F7.1°C -168.3°F-111.3°C - 2.0 mph N3.2 kmh N 4.8 mph7.7 kmh 29.08 in984.8 mb 0.00 in0.0 mm 0.00 in0.0 mm 0.00 in0.0 mm
06:49 PM 44.8°F7.1°C -168.3°F-111.3°C - 2.8 mph N4.5 kmh N 4.8 mph7.7 kmh 29.08 in984.8 mb 0.00 in0.0 mm 0.00 in0.0 mm 0.00 in0.0 mm
07:04 PM 44.8°F7.1°C -168.3°F-111.3°C - 2.0 mph N3.2 kmh N 4.8 mph7.7 kmh 29.08 in984.8 mb 0.00 in0.0 mm 0.00 in0.0 mm 0.00 in0.0 mm
07:19 PM 44.8°F7.1°C -168.3°F-111.3°C - 2.0 mph N3.2 kmh N 4.8 mph7.7 kmh 29.08 in984.8 mb 0.00 in0.0 mm 0.00 in0.0 mm 0.00 in0.0 mm
07:34 PM 45.0°F7.2°C -168.3°F-111.3°C - 2.0 mph N3.2 kmh N 5.4 mph8.7 kmh 29.08 in984.8 mb 0.00 in0.0 mm 0.00 in0.0 mm 0.00 in0.0 mm
07:49 PM 45.1°F7.3°C -168.3°F-111.3°C - 4.8 mph N7.7 kmh N 9.6 mph15.4 kmh 29.09 in985.1 mb 0.00 in0.0 mm 0.00 in0.0 mm 0.00 in0.0 mm
08:04 PM 45.0°F7.2°C -168.3°F-111.3°C - 3.4 mph N5.5 kmh N 6.8 mph10.9 kmh 29.08 in984.8 mb 0.00 in0.0 mm 0.00 in0.0 mm 0.00 in0.0 mm
08:19 PM 45.1°F7.3°C -168.3°F-111.3°C - 2.0 mph N3.2 kmh N 5.4 mph8.7 kmh 29.08 in984.8 mb 0.00 in0.0 mm 0.00 in0.0 mm 0.00 in0.0 mm
08:34 PM 45.1°F7.3°C -168.3°F-111.3°C - 2.0 mph N3.2 kmh N 4.0 mph6.4 kmh 29.08 in984.8 mb 0.00 in0.0 mm 0.00 in0.0 mm 0.00 in0.0 mm
08:49 PM 44.8°F7.1°C -168.3°F-111.3°C - 1.4 mph N2.3 kmh N 2.8 mph4.5 kmh 29.09 in985.1 mb 0.00 in0.0 mm 0.00 in0.0 mm 0.00 in0.0 mm
09:04 PM 44.8°F7.1°C -168.3°F-111.3°C - 2.0 mph N3.2 kmh N 4.8 mph7.7 kmh 29.09 in985.1 mb 0.00 in0.0 mm 0.00 in0.0 mm 0.00 in0.0 mm
09:19 PM 44.6°F7.0°C -168.3°F-111.3°C - 2.0 mph N3.2 kmh N 3.4 mph5.5 kmh 29.09 in985.1 mb 0.00 in0.0 mm 0.00 in0.0 mm 0.00 in0.0 mm
09:34 PM 44.4°F6.9°C -168.4°F-111.3°C - Calm Calm 2.0 mph3.2 kmh 29.09 in985.1 mb 0.00 in0.0 mm 0.00 in0.0 mm 0.00 in0.0 mm
09:49 PM 44.1°F6.7°C -168.4°F-111.3°C - 0.6 mph N1.0 kmh N 4.8 mph7.7 kmh 29.09 in985.1 mb 0.00 in0.0 mm 0.00 in0.0 mm 0.00 in0.0 mm
10:05 PM 43.9°F6.6°C -168.4°F-111.3°C - 2.0 mph N3.2 kmh N 5.4 mph8.7 kmh 29.09 in985.1 mb 0.00 in0.0 mm 0.00 in0.0 mm 0.00 in0.0 mm
10:21 PM 43.9°F6.6°C -168.4°F-111.3°C - 1.4 mph N2.3 kmh N 3.4 mph5.5 kmh 29.09 in985.1 mb 0.00 in0.0 mm 0.00 in0.0 mm 0.00 in0.0 mm
10:34 PM 43.9°F6.6°C -168.4°F-111.3°C - 2.0 mph N3.2 kmh N 4.0 mph6.4 kmh 29.08 in984.8 mb 0.00 in0.0 mm 0.00 in0.0 mm 0.00 in0.0 mm
10:49 PM 43.9°F6.6°C -168.4°F-111.3°C - Calm Calm 2.8 mph4.5 kmh 29.08 in984.8 mb 0.00 in0.0 mm 0.00 in0.0 mm 0.00 in0.0 mm
11:05 PM 43.5°F6.4°C -168.4°F-111.3°C - Calm Calm 0.6 mph1.0 kmh 29.08 in984.8 mb 0.00 in0.0 mm 0.00 in0.0 mm 0.00 in0.0 mm
11:19 PM 43.5°F6.4°C -168.4°F-111.3°C - Calm Calm 1.4 mph2.3 kmh 29.07 in984.4 mb 0.00 in0.0 mm 0.00 in0.0 mm 0.00 in0.0 mm
11:34 PM 43.3°F6.3°C -168.5°F-111.4°C - Calm Calm -- 29.07 in984.4 mb 0.00 in0.0 mm 0.00 in0.0 mm 0.00 in0.0 mm
11:49 PM 43.2°F6.2°C -168.5°F-111.4°C - 0.6 mph N1.0 kmh N 3.4 mph5.5 kmh 29.07 in984.4 mb 0.00 in0.0 mm 0.00 in0.0 mm 0.00 in0.0 mm